createdAt,value
2023-02-16T00:01:49.464Z,-0.25
2023-02-16T00:06:42.693Z,0.23
2023-02-16T00:11:54.775Z,0.66
2023-02-16T00:16:49.306Z,0.69
2023-02-16T00:21:42.442Z,0.71
2023-02-16T00:26:36.389Z,0.40
2023-02-16T00:31:33.010Z,0.15
2023-02-16T00:36:27.782Z,0.56
2023-02-16T00:41:40.766Z,0.65
2023-02-16T00:46:34.547Z,0.83
2023-02-16T00:51:29.824Z,0.15
2023-02-16T00:56:23.706Z,0.95
2023-02-16T01:01:19.949Z,-0.12
2023-02-16T01:06:31.387Z,0.91
2023-02-16T01:11:26.827Z,0.60
2023-02-16T01:16:23.207Z,0.72
2023-02-16T01:21:16.715Z,-0.91
2023-02-16T01:26:16.178Z,0.75
2023-02-16T01:31:14.757Z,0.25
2023-02-16T01:36:21.089Z,0.58
2023-02-16T01:41:23.675Z,0.37
2023-02-16T01:46:22.680Z,0.22
2023-02-16T01:51:20.781Z,0.03
2023-02-16T01:56:22.713Z,0.09
2023-02-16T02:01:51.846Z,0.28
2023-02-16T02:06:48.258Z,-0.41
2023-02-16T02:11:47.288Z,0.17
2023-02-16T02:16:40.739Z,-0.10
2023-02-16T02:22:31.132Z,0.25
2023-02-16T02:27:27.398Z,-0.15
2023-02-16T02:32:29.262Z,-0.09
2023-02-16T02:37:30.257Z,-0.14
2023-02-16T02:42:34.144Z,-0.73
2023-02-16T02:47:39.634Z,0.16
2023-02-16T02:52:35.937Z,0.10
2023-02-16T02:57:53.398Z,0.22
2023-02-16T03:02:50.709Z,0.29
2023-02-16T03:07:48.556Z,-0.57
2023-02-16T03:12:46.232Z,0.30
2023-02-16T03:18:00.289Z,0.25
2023-02-16T03:23:10.782Z,0.22
2023-02-16T03:28:25.941Z,-0.34
2023-02-16T03:33:19.964Z,0.34
2023-02-16T03:38:13.372Z,-0.31
2023-02-16T03:43:09.563Z,0.33
2023-02-16T03:48:04.164Z,0.05
2023-02-16T03:53:07.173Z,0.04
2023-02-16T03:58:00.989Z,-0.56
2023-02-16T04:02:55.787Z,-0.24
2023-02-16T04:07:48.897Z,0.23
2023-02-16T04:12:42.024Z,-0.31
2023-02-16T04:17:35.197Z,-0.10
2023-02-16T04:22:31.179Z,0.07
2023-02-16T04:27:24.565Z,-0.16
2023-02-16T04:32:17.940Z,-0.59
2023-02-16T04:37:11.106Z,0.00
2023-02-16T04:42:06.085Z,0.01
2023-02-16T04:46:59.464Z,-0.01
2023-02-16T04:51:52.773Z,-0.09
2023-02-16T04:56:46.373Z,0.00
2023-02-16T05:01:41.259Z,-0.10
2023-02-16T05:06:34.630Z,-0.31
2023-02-16T05:11:45.345Z,-0.32
2023-02-16T05:16:40.227Z,-0.31
2023-02-16T05:21:33.585Z,-0.55
2023-02-16T05:26:27.073Z,-0.48
2023-02-16T05:31:22.360Z,-0.17
2023-02-16T05:36:17.302Z,-0.35
2023-02-16T05:41:10.780Z,-0.37
2023-02-16T05:46:09.008Z,-0.20
2023-02-16T05:51:02.744Z,-0.41
2023-02-16T05:55:57.771Z,-0.45
2023-02-16T06:00:51.175Z,-0.46
2023-02-16T06:05:44.643Z,-0.23
2023-02-16T06:10:38.191Z,-0.90
2023-02-16T06:15:35.902Z,0.13
2023-02-16T06:20:29.278Z,-0.44
2023-02-16T06:25:22.609Z,0.30
2023-02-16T06:30:16.234Z,-0.47
2023-02-16T06:35:11.111Z,-0.25
2023-02-16T06:40:04.755Z,0.47
2023-02-16T06:44:58.284Z,0.26
2023-02-16T06:49:51.602Z,0.87
2023-02-16T06:54:46.786Z,0.67
2023-02-16T06:59:40.788Z,1.17
2023-02-16T07:04:34.092Z,0.87
2023-02-16T07:09:27.937Z,1.30
2023-02-16T07:14:23.295Z,1.62
2023-02-16T07:19:16.757Z,1.94
2023-02-16T07:24:10.226Z,2.14
2023-02-16T07:29:03.647Z,1.98
2023-02-16T07:33:58.622Z,1.91
2023-02-16T07:38:52.006Z,1.93
2023-02-16T07:43:45.637Z,2.93
2023-02-16T07:48:38.923Z,3.15
2023-02-16T07:53:33.843Z,2.75
2023-02-16T07:58:29.311Z,2.29
2023-02-16T08:03:23.658Z,2.54
2023-02-16T08:08:19.078Z,4.24
2023-02-16T08:13:15.108Z,4.41
2023-02-16T08:18:08.934Z,4.22
2023-02-16T08:23:02.533Z,5.16
2023-02-16T08:27:55.805Z,4.89
2023-02-16T08:32:51.944Z,4.92
2023-02-16T08:37:46.102Z,4.71
2023-02-16T08:42:42.094Z,6.33
2023-02-16T08:47:41.926Z,6.53
2023-02-16T08:52:41.354Z,5.66
2023-02-16T08:57:49.268Z,6.47
2023-02-16T09:02:58.767Z,5.77
2023-02-16T09:08:04.886Z,6.14
2023-02-16T09:13:15.167Z,6.35
2023-02-16T09:18:19.892Z,8.24
2023-02-16T09:23:32.000Z,8.00
2023-02-16T09:29:19.794Z,9.36
2023-02-16T09:34:19.077Z,11.39
2023-02-16T09:39:14.068Z,12.24
2023-02-16T09:44:18.000Z,12.60
2023-02-16T09:49:25.227Z,13.06
2023-02-16T09:54:30.960Z,12.87
2023-02-16T09:59:39.377Z,13.32
2023-02-16T10:04:44.238Z,13.05
2023-02-16T10:09:41.872Z,11.94
2023-02-16T10:14:41.425Z,12.68
2023-02-16T10:19:40.595Z,12.84
2023-02-16T10:24:45.470Z,12.32
2023-02-16T10:29:38.720Z,12.86
2023-02-16T10:34:46.853Z,12.00
2023-02-16T10:39:47.837Z,13.02
2023-02-16T10:44:47.268Z,13.16
2023-02-16T10:49:50.711Z,13.07
2023-02-16T10:54:45.412Z,13.08
2023-02-16T10:59:43.722Z,13.55
2023-02-16T11:04:39.971Z,13.80
2023-02-16T11:09:33.718Z,14.36
2023-02-16T11:14:31.332Z,14.35
2023-02-16T11:19:26.932Z,14.31
2023-02-16T11:24:28.044Z,14.58
2023-02-16T11:29:21.829Z,14.21
2023-02-16T11:34:33.012Z,15.14
2023-02-16T11:39:30.943Z,15.26
2023-02-16T11:44:28.803Z,15.09
2023-02-16T11:49:31.740Z,14.82
2023-02-16T11:54:25.152Z,14.32
2023-02-16T11:59:20.793Z,13.73
2023-02-16T12:04:26.612Z,13.30
2023-02-16T12:09:31.918Z,12.89
2023-02-16T12:14:38.725Z,12.15
2023-02-16T12:19:42.014Z,12.46
2023-02-16T12:25:01.841Z,11.41
2023-02-16T12:30:34.145Z,11.26
2023-02-16T12:35:49.908Z,11.51
2023-02-16T12:41:05.043Z,12.23
2023-02-16T12:46:09.005Z,10.77
2023-02-16T12:51:08.842Z,11.13
2023-02-16T12:56:35.846Z,12.12
2023-02-16T13:01:52.614Z,11.98
2023-02-16T13:07:01.186Z,11.78
2023-02-16T13:12:06.883Z,10.80
2023-02-16T13:17:14.437Z,11.11
2023-02-16T13:22:40.333Z,11.33
2023-02-16T13:27:51.488Z,11.01
2023-02-16T13:33:05.589Z,11.69
2023-02-16T13:39:34.047Z,11.52
2023-02-16T13:44:08.834Z,11.16
2023-02-16T13:49:04.796Z,11.54
2023-02-16T13:54:00.870Z,11.33
2023-02-16T13:58:59.157Z,10.82
2023-02-16T14:03:56.075Z,10.94
2023-02-16T14:09:31.210Z,12.00
2023-02-16T14:14:40.048Z,11.97
2023-02-16T14:19:41.038Z,10.69
2023-02-16T14:24:39.917Z,11.25
2023-02-16T14:29:39.351Z,11.58
2023-02-16T14:34:41.417Z,11.16
2023-02-16T14:39:43.822Z,11.40
2023-02-16T14:45:03.750Z,11.68
2023-02-16T14:50:28.922Z,10.27
2023-02-16T14:55:55.493Z,10.59
2023-02-16T15:00:57.073Z,10.57
2023-02-16T15:06:02.345Z,10.17
2023-02-16T15:11:06.569Z,9.92
2023-02-16T15:16:15.304Z,9.79
2023-02-16T15:21:22.487Z,10.92
2023-02-16T15:26:22.555Z,9.94
2023-02-16T15:31:26.255Z,9.66
2023-02-16T15:36:36.956Z,9.03
2023-02-16T15:41:31.504Z,10.28
2023-02-16T15:46:33.250Z,9.97
2023-02-16T15:51:33.417Z,9.08
2023-02-16T15:56:39.840Z,8.73
2023-02-16T16:01:37.664Z,8.66
2023-02-16T16:06:37.216Z,9.22
2023-02-16T16:11:37.068Z,7.63
2023-02-16T16:16:36.490Z,8.88
2023-02-16T16:21:34.450Z,7.15
2023-02-16T16:26:29.546Z,8.36
2023-02-16T16:31:43.801Z,7.50
2023-02-16T16:36:41.244Z,7.85
2023-02-16T16:41:38.632Z,7.96
2023-02-16T16:46:33.691Z,6.76
2023-02-16T16:51:42.732Z,6.67
2023-02-16T16:56:38.492Z,7.34
2023-02-16T17:01:37.912Z,7.01
2023-02-16T17:06:32.692Z,7.55
2023-02-16T17:11:31.715Z,7.15
2023-02-16T17:16:28.825Z,5.96
2023-02-16T17:21:24.775Z,6.87
2023-02-16T17:26:21.399Z,6.99
2023-02-16T17:31:16.675Z,6.57
2023-02-16T17:36:15.441Z,6.63
2023-02-16T17:41:09.454Z,5.76
2023-02-16T17:46:06.721Z,6.18
2023-02-16T17:51:01.941Z,6.13
2023-02-16T17:55:58.654Z,4.94
2023-02-16T18:00:52.334Z,5.46
2023-02-16T18:05:46.035Z,4.78
2023-02-16T18:10:44.860Z,5.26
2023-02-16T18:15:38.676Z,5.29
2023-02-16T18:20:32.004Z,5.18
2023-02-16T18:25:25.407Z,5.04
2023-02-16T18:30:20.391Z,4.65
2023-02-16T18:35:14.438Z,4.11
2023-02-16T18:40:11.071Z,4.60
2023-02-16T18:45:04.951Z,4.02
2023-02-16T18:49:59.646Z,4.30
2023-02-16T18:54:53.166Z,4.45
2023-02-16T18:59:46.455Z,3.54
2023-02-16T19:04:39.789Z,4.40
2023-02-16T19:09:34.679Z,3.36
2023-02-16T19:14:28.052Z,2.96
2023-02-16T19:19:21.487Z,3.83
2023-02-16T19:24:15.144Z,4.23
2023-02-16T19:29:09.829Z,3.51
2023-02-16T19:34:03.947Z,4.11
2023-02-16T19:38:57.554Z,3.51
2023-02-16T19:43:51.282Z,4.18
2023-02-16T19:48:46.510Z,3.92
2023-02-16T19:53:43.379Z,3.49
2023-02-16T19:58:37.057Z,3.71
2023-02-16T20:03:32.322Z,3.32
2023-02-16T20:08:43.406Z,3.58
2023-02-16T20:13:37.350Z,2.87
2023-02-16T20:18:31.485Z,2.44
2023-02-16T20:23:24.812Z,2.64
2023-02-16T20:28:22.335Z,3.04
2023-02-16T20:33:18.313Z,3.31
2023-02-16T20:38:11.796Z,3.28
2023-02-16T20:43:05.530Z,3.08
2023-02-16T20:48:00.373Z,2.74
2023-02-16T20:52:54.692Z,2.83
2023-02-16T20:57:47.931Z,3.40
2023-02-16T21:02:41.566Z,3.35
2023-02-16T21:07:36.364Z,3.51
2023-02-16T21:12:30.006Z,2.49
2023-02-16T21:17:23.640Z,3.44
2023-02-16T21:22:16.968Z,2.91
2023-02-16T21:27:15.010Z,2.54
2023-02-16T21:32:08.844Z,2.78
2023-02-16T21:37:02.078Z,2.25
2023-02-16T21:41:55.443Z,2.61
2023-02-16T21:46:50.089Z,2.56
2023-02-16T21:51:45.422Z,2.49
2023-02-16T21:56:41.009Z,2.39
2023-02-16T22:01:36.214Z,2.19
2023-02-16T22:06:33.601Z,2.16
2023-02-16T22:11:29.468Z,1.82
2023-02-16T22:16:23.252Z,2.24
2023-02-16T22:21:17.452Z,2.18
2023-02-16T22:26:22.530Z,1.40
2023-02-16T22:31:17.709Z,1.00
2023-02-16T22:36:15.160Z,2.05
2023-02-16T22:41:09.339Z,1.09
2023-02-16T22:46:08.842Z,1.31
2023-02-16T22:51:03.400Z,2.01
2023-02-16T22:55:59.301Z,2.00
2023-02-16T23:00:53.177Z,1.97
2023-02-16T23:05:50.361Z,1.97
2023-02-16T23:11:00.045Z,1.79
2023-02-16T23:15:53.472Z,1.43
2023-02-16T23:20:48.141Z,0.78
2023-02-16T23:25:46.019Z,1.61
2023-02-16T23:30:43.056Z,1.86
2023-02-16T23:35:37.974Z,1.83
2023-02-16T23:40:32.784Z,1.81
2023-02-16T23:45:26.015Z,1.11
2023-02-16T23:50:21.476Z,1.83
2023-02-16T23:55:15.253Z,1.38
